createdAt,value
2018-12-07T00:01:54.513Z,35.43
2018-12-07T00:04:23.792Z,35.32
2018-12-07T00:06:52.789Z,34.66
2018-12-07T00:09:21.803Z,35.04
2018-12-07T00:11:50.872Z,34.72
2018-12-07T00:14:19.945Z,35.95
2018-12-07T00:16:48.907Z,36.31
2018-12-07T00:19:17.839Z,35.49
2018-12-07T00:21:46.831Z,34.95
2018-12-07T00:24:15.944Z,35.13
2018-12-07T00:26:45.040Z,34.80
2018-12-07T00:29:14.146Z,34.74
2018-12-07T00:31:43.116Z,35.20
2018-12-07T00:34:12.123Z,35.74
2018-12-07T00:36:41.288Z,35.93
2018-12-07T00:39:10.453Z,35.09
2018-12-07T00:41:39.422Z,35.01
2018-12-07T00:44:08.638Z,34.71
2018-12-07T00:46:37.593Z,34.29
2018-12-07T00:49:06.592Z,34.44
2018-12-07T00:51:35.679Z,34.33
2018-12-07T00:54:04.671Z,35.53
2018-12-07T00:56:33.785Z,35.36
2018-12-07T00:59:02.763Z,34.85
2018-12-07T01:01:31.783Z,34.83
2018-12-07T01:04:00.781Z,34.55
2018-12-07T01:06:29.787Z,34.42
2018-12-07T01:08:58.767Z,33.63
2018-12-07T01:11:27.829Z,34.82
2018-12-07T01:13:56.908Z,35.18
2018-12-07T01:16:26.058Z,34.16
2018-12-07T01:18:54.944Z,34.54
2018-12-07T01:21:24.000Z,34.33
2018-12-07T01:23:53.018Z,33.77
2018-12-07T01:26:22.164Z,33.66
2018-12-07T01:28:51.103Z,34.06
2018-12-07T01:31:20.087Z,34.56
2018-12-07T01:33:49.254Z,34.49
2018-12-07T01:36:18.292Z,34.54
2018-12-07T01:38:47.380Z,33.80
2018-12-07T01:41:16.493Z,34.32
2018-12-07T01:43:45.572Z,34.35
2018-12-07T01:46:14.592Z,34.44
2018-12-07T01:48:43.679Z,34.25
2018-12-07T01:51:12.813Z,34.64
2018-12-07T01:53:41.764Z,34.57
2018-12-07T01:56:10.770Z,34.46
2018-12-07T01:58:39.741Z,34.53
2018-12-07T02:01:08.857Z,33.96
2018-12-07T02:03:37.839Z,34.22
2018-12-07T02:06:06.881Z,33.90
2018-12-07T02:08:35.873Z,34.32
2018-12-07T02:11:04.953Z,34.27
2018-12-07T02:13:34.109Z,33.89
2018-12-07T02:16:03.180Z,34.08
2018-12-07T02:18:32.331Z,34.08
2018-12-07T02:21:01.406Z,34.01
2018-12-07T02:23:30.644Z,33.84
2018-12-07T02:25:59.688Z,33.72
2018-12-07T02:28:28.729Z,34.13
2018-12-07T02:30:57.716Z,34.29
2018-12-07T02:33:26.738Z,34.01
2018-12-07T02:35:55.686Z,33.83
2018-12-07T02:38:24.701Z,33.52
2018-12-07T02:40:53.709Z,33.94
2018-12-07T02:43:22.775Z,33.93
2018-12-07T02:45:51.773Z,33.96
2018-12-07T02:48:20.887Z,33.92
2018-12-07T02:50:50.056Z,33.89
2018-12-07T02:53:19.145Z,33.54
2018-12-07T02:55:48.256Z,33.43
2018-12-07T02:58:17.366Z,33.52
2018-12-07T03:00:46.461Z,33.75
2018-12-07T03:03:15.456Z,33.39
2018-12-07T03:05:44.566Z,33.61
2018-12-07T03:08:13.651Z,33.53
2018-12-07T03:10:42.755Z,34.03
2018-12-07T03:13:11.744Z,33.62
2018-12-07T03:15:40.739Z,34.17
2018-12-07T03:18:19.347Z,34.30
2018-12-07T03:20:48.334Z,33.89
2018-12-07T03:23:17.341Z,33.97
2018-12-07T03:25:46.421Z,33.90
2018-12-07T03:28:15.672Z,33.56
2018-12-07T03:30:44.672Z,33.64
2018-12-07T03:33:13.637Z,34.08
2018-12-07T03:35:42.711Z,33.97
2018-12-07T03:38:11.805Z,33.87
2018-12-07T03:40:40.889Z,33.50
2018-12-07T03:43:09.992Z,34.14
2018-12-07T03:45:38.995Z,33.51
2018-12-07T03:48:08.092Z,33.67
2018-12-07T03:50:37.080Z,33.70
2018-12-07T03:53:06.180Z,34.28
2018-12-07T03:55:35.272Z,33.97
2018-12-07T03:58:04.391Z,33.70
2018-12-07T04:00:33.480Z,33.91
2018-12-07T04:03:02.494Z,33.80
2018-12-07T04:05:31.609Z,33.48
2018-12-07T04:08:00.565Z,34.10
2018-12-07T04:10:29.631Z,33.73
2018-12-07T04:12:58.648Z,34.06
2018-12-07T04:15:27.661Z,33.55
2018-12-07T04:17:56.723Z,33.52
2018-12-07T04:20:25.820Z,33.87
2018-12-07T04:22:55.044Z,34.02
2018-12-07T04:25:24.013Z,33.81
2018-12-07T04:27:52.884Z,33.45
2018-12-07T04:30:26.437Z,33.96
2018-12-07T04:32:55.627Z,33.34
2018-12-07T04:35:24.608Z,33.07
2018-12-07T04:37:53.816Z,32.99
2018-12-07T04:40:22.925Z,33.03
2018-12-07T04:42:51.911Z,33.32
2018-12-07T04:45:20.889Z,33.88
2018-12-07T04:47:49.912Z,33.37
2018-12-07T04:50:18.999Z,33.65
2018-12-07T04:52:47.984Z,32.83
2018-12-07T04:55:16.980Z,33.15
2018-12-07T04:57:45.982Z,33.03
2018-12-07T05:00:14.968Z,33.51
2018-12-07T05:02:43.933Z,33.54
2018-12-07T05:05:13.160Z,33.63
2018-12-07T05:07:42.127Z,33.58
2018-12-07T05:10:11.151Z,32.89
2018-12-07T05:12:40.233Z,32.19
2018-12-07T05:15:09.350Z,31.86
2018-12-07T05:17:38.524Z,32.60
2018-12-07T05:20:08.188Z,32.08
2018-12-07T05:25:37.024Z,29.18
2018-12-07T05:28:06.132Z,29.72
2018-12-07T05:30:35.155Z,30.50
2018-12-07T05:33:04.252Z,30.67
2018-12-07T05:35:33.355Z,30.66
2018-12-07T05:38:02.522Z,30.67
2018-12-07T05:40:31.751Z,30.82
2018-12-07T05:43:00.776Z,30.35
2018-12-07T05:45:29.738Z,31.05
2018-12-07T05:47:58.819Z,30.79
2018-12-07T05:50:27.714Z,31.10
2018-12-07T05:52:56.908Z,31.08
2018-12-07T05:55:26.003Z,31.08
2018-12-07T05:57:55.083Z,31.39
2018-12-07T06:00:24.221Z,30.96
2018-12-07T06:02:53.385Z,30.09
2018-12-07T06:05:22.383Z,29.64
2018-12-07T06:07:51.589Z,30.38
2018-12-07T06:10:20.708Z,30.87
2018-12-07T06:12:49.793Z,30.75
2018-12-07T06:15:19.127Z,31.50
2018-12-07T06:17:48.190Z,33.63
2018-12-07T06:20:17.310Z,34.04
2018-12-07T06:22:46.383Z,32.64
2018-12-07T06:25:15.531Z,32.33
2018-12-07T06:27:44.740Z,31.78
2018-12-07T06:30:13.829Z,34.14
2018-12-07T06:32:42.993Z,31.00
2018-12-07T06:35:12.084Z,31.84
2018-12-07T06:37:40.908Z,33.02
2018-12-07T06:40:09.660Z,33.52
2018-12-07T06:42:38.420Z,33.05
2018-12-07T06:45:07.260Z,33.33
2018-12-07T06:47:36.340Z,32.63
2018-12-07T06:50:05.722Z,32.96
2018-12-07T06:52:34.829Z,32.76
2018-12-07T06:55:03.873Z,33.49
2018-12-07T06:57:32.933Z,34.64
2018-12-07T07:00:02.253Z,34.03
2018-12-07T07:02:31.302Z,33.18
2018-12-07T07:05:00.525Z,34.09
2018-12-07T07:07:29.656Z,34.64
2018-12-07T07:09:58.647Z,34.16
2018-12-07T07:12:29.177Z,34.90
2018-12-07T07:14:58.533Z,34.63
2018-12-07T07:17:27.534Z,34.34
2018-12-07T07:19:56.551Z,35.00
2018-12-07T07:22:25.593Z,35.17
2018-12-07T07:24:54.618Z,35.31
2018-12-07T07:27:23.627Z,35.41
2018-12-07T07:29:52.641Z,35.45
2018-12-07T07:32:21.819Z,35.54
2018-12-07T07:34:51.007Z,35.38
2018-12-07T07:37:20.124Z,35.34
2018-12-07T07:39:49.199Z,35.62
2018-12-07T07:42:18.364Z,35.27
2018-12-07T07:44:47.393Z,36.18
2018-12-07T07:47:16.479Z,35.34
2018-12-07T07:49:45.592Z,35.91
2018-12-07T07:52:14.633Z,36.11
2018-12-07T07:54:43.615Z,35.77
2018-12-07T07:57:12.664Z,35.52
2018-12-07T07:59:41.648Z,36.52
2018-12-07T08:02:10.628Z,35.53
2018-12-07T08:04:39.372Z,35.75
2018-12-07T08:07:08.337Z,36.26
2018-12-07T08:09:37.432Z,36.58
2018-12-07T08:12:06.530Z,36.98
2018-12-07T08:14:35.637Z,36.50
2018-12-07T08:17:04.724Z,36.56
2018-12-07T08:19:33.724Z,36.76
2018-12-07T08:22:02.968Z,36.25
2018-12-07T08:24:32.348Z,36.53
2018-12-07T08:27:01.321Z,37.04
2018-12-07T08:29:30.594Z,37.31
2018-12-07T08:31:59.669Z,36.78
2018-12-07T08:34:28.765Z,36.11
2018-12-07T08:36:57.805Z,36.79
2018-12-07T08:39:26.801Z,37.21
2018-12-07T08:41:55.848Z,37.60
2018-12-07T08:44:24.955Z,37.43
2018-12-07T08:46:54.068Z,37.16
2018-12-07T08:49:28.194Z,39.61
2018-12-07T08:51:57.214Z,36.28
2018-12-07T08:54:26.182Z,36.50
2018-12-07T08:56:55.221Z,36.35
2018-12-07T08:59:24.184Z,36.28
2018-12-07T09:01:53.199Z,36.59
2018-12-07T09:04:22.264Z,36.49
2018-12-07T09:06:51.397Z,36.74
2018-12-07T09:09:20.547Z,37.69
2018-12-07T09:11:49.588Z,37.22
2018-12-07T09:14:18.668Z,36.87
2018-12-07T09:16:47.736Z,36.56
2018-12-07T09:19:16.825Z,36.86
2018-12-07T09:21:45.939Z,39.93
2018-12-07T09:24:15.033Z,38.84
2018-12-07T09:26:44.032Z,39.47
2018-12-07T09:29:13.120Z,38.23
2018-12-07T09:31:42.329Z,37.47
2018-12-07T09:34:11.353Z,37.33
2018-12-07T09:36:40.563Z,37.67
2018-12-07T09:39:10.724Z,37.72
2018-12-07T09:41:39.830Z,37.96
2018-12-07T09:44:08.817Z,37.33
2018-12-07T09:46:37.960Z,37.50
2018-12-07T09:49:07.019Z,38.04
2018-12-07T09:51:36.190Z,37.43
2018-12-07T09:54:05.341Z,37.57
2018-12-07T09:56:34.318Z,38.61
2018-12-07T09:59:03.306Z,38.08
2018-12-07T10:01:32.320Z,38.00
2018-12-07T10:04:01.569Z,38.27
2018-12-07T10:06:30.633Z,37.93
2018-12-07T10:08:59.679Z,38.34
2018-12-07T10:11:28.776Z,38.20
2018-12-07T10:13:57.868Z,38.26
2018-12-07T10:16:26.875Z,37.88
2018-12-07T10:18:55.941Z,38.59
2018-12-07T10:21:25.004Z,39.11
2018-12-07T10:23:53.879Z,39.17
2018-12-07T10:26:22.860Z,38.82
2018-12-07T10:28:51.904Z,38.86
2018-12-07T10:31:20.977Z,38.49
2018-12-07T10:33:50.823Z,38.43
2018-12-07T10:36:19.970Z,38.64
2018-12-07T10:38:49.031Z,38.63
2018-12-07T10:41:18.129Z,38.54
2018-12-07T10:43:47.144Z,38.70
2018-12-07T10:46:16.233Z,39.19
2018-12-07T10:48:45.441Z,39.10
2018-12-07T10:51:14.392Z,39.40
2018-12-07T10:53:43.409Z,40.50
2018-12-07T10:56:12.520Z,40.58
2018-12-07T10:58:41.539Z,39.50
2018-12-07T11:01:15.709Z,39.81
2018-12-07T11:03:49.646Z,40.06
2018-12-07T11:06:23.870Z,40.34
2018-12-07T11:08:57.791Z,39.90
2018-12-07T11:11:31.857Z,39.22
2018-12-07T11:14:06.055Z,37.83
2018-12-07T11:16:40.013Z,37.59
2018-12-07T11:20:14.753Z,37.54
2018-12-07T11:22:48.637Z,37.80
2018-12-07T11:25:22.694Z,37.70
2018-12-07T11:27:56.677Z,38.06
2018-12-07T11:30:30.394Z,38.29
2018-12-07T11:33:04.841Z,38.40
2018-12-07T11:35:37.211Z,38.85
2018-12-07T11:38:06.187Z,38.04
2018-12-07T11:40:35.272Z,38.07
2018-12-07T11:43:04.372Z,38.23
2018-12-07T11:45:33.460Z,38.21
2018-12-07T11:48:02.607Z,38.41
2018-12-07T11:50:31.684Z,38.87
2018-12-07T11:53:00.697Z,38.05
2018-12-07T11:55:29.744Z,38.26
2018-12-07T11:57:58.717Z,38.62
2018-12-07T12:00:27.743Z,38.41
2018-12-07T12:02:56.829Z,39.36
2018-12-07T12:05:25.963Z,39.23
2018-12-07T12:07:55.107Z,38.90
2018-12-07T12:10:24.380Z,38.79
2018-12-07T12:12:53.400Z,39.38
2018-12-07T12:15:22.673Z,39.18
2018-12-07T12:17:51.820Z,39.96
2018-12-07T12:20:20.952Z,40.04
2018-12-07T12:22:50.016Z,39.56
2018-12-07T12:25:19.120Z,39.44
2018-12-07T12:27:48.308Z,39.71
2018-12-07T12:30:17.929Z,39.27
2018-12-07T12:32:47.224Z,39.47
2018-12-07T12:35:16.346Z,39.95
2018-12-07T12:37:45.497Z,39.66
2018-12-07T12:40:14.644Z,40.73
2018-12-07T12:42:43.699Z,39.99
2018-12-07T12:45:12.799Z,41.48
2018-12-07T12:47:41.886Z,39.54
2018-12-07T12:50:16.074Z,39.83
2018-12-07T12:52:45.159Z,39.64
2018-12-07T12:55:14.322Z,39.75
2018-12-07T12:57:43.367Z,39.42
2018-12-07T13:00:12.441Z,39.42
2018-12-07T13:02:41.690Z,39.37
2018-12-07T13:05:10.794Z,39.66
2018-12-07T13:07:39.770Z,39.77
2018-12-07T13:10:08.875Z,40.98
2018-12-07T13:12:37.935Z,41.39
2018-12-07T13:15:07.047Z,40.59
2018-12-07T13:17:36.090Z,40.22
2018-12-07T13:20:05.791Z,40.22
2018-12-07T13:22:34.813Z,40.07
2018-12-07T13:25:03.991Z,39.36
2018-12-07T13:27:33.176Z,39.44
2018-12-07T13:30:02.178Z,39.22
2018-12-07T13:32:31.490Z,39.73
2018-12-07T13:35:00.575Z,39.65
2018-12-07T13:37:29.772Z,39.61
2018-12-07T13:39:58.986Z,39.25
2018-12-07T13:42:27.984Z,38.69
2018-12-07T13:44:57.194Z,37.48
2018-12-07T13:47:26.578Z,35.94
2018-12-07T13:51:01.539Z,38.18
2018-12-07T13:53:31.023Z,38.04
2018-12-07T13:56:00.187Z,37.98
2018-12-07T13:58:29.411Z,37.94
2018-12-07T14:00:58.818Z,37.23
2018-12-07T14:03:28.116Z,37.55
2018-12-07T14:05:57.375Z,37.58
2018-12-07T14:08:26.784Z,38.11
2018-12-07T14:10:56.162Z,37.76
2018-12-07T14:13:25.366Z,37.94
2018-12-07T14:15:54.673Z,37.36
2018-12-07T14:18:24.096Z,37.61
2018-12-07T14:20:53.174Z,37.59
2018-12-07T14:23:22.620Z,37.20
2018-12-07T14:25:51.887Z,37.46
2018-12-07T14:28:20.996Z,36.91
2018-12-07T14:30:50.301Z,36.94
2018-12-07T14:33:19.528Z,37.33
2018-12-07T14:35:48.791Z,36.90
2018-12-07T14:38:17.921Z,37.04
2018-12-07T14:40:47.077Z,36.92
2018-12-07T14:43:16.219Z,37.17
2018-12-07T14:45:45.579Z,36.96
2018-12-07T14:48:15.198Z,36.47
2018-12-07T14:50:44.649Z,37.02
2018-12-07T14:53:13.999Z,36.60
2018-12-07T14:55:43.310Z,36.93
2018-12-07T14:58:12.657Z,36.64
2018-12-07T15:00:41.957Z,35.99
2018-12-07T15:03:11.042Z,36.47
2018-12-07T15:05:40.127Z,36.42
2018-12-07T15:08:09.185Z,36.00
2018-12-07T15:10:38.451Z,36.05
2018-12-07T15:13:07.973Z,36.29
2018-12-07T15:15:37.305Z,35.55
2018-12-07T15:18:06.659Z,35.83
2018-12-07T15:20:35.784Z,36.04
2018-12-07T15:23:05.139Z,35.79
2018-12-07T15:25:34.524Z,35.92
2018-12-07T15:28:03.920Z,35.79
2018-12-07T15:30:33.241Z,35.75
2018-12-07T15:33:02.397Z,35.99
2018-12-07T15:35:31.614Z,35.63
2018-12-07T15:38:00.841Z,35.69
2018-12-07T15:40:29.970Z,35.56
2018-12-07T15:42:59.127Z,35.75
2018-12-07T15:45:28.303Z,36.14
2018-12-07T15:47:57.380Z,36.09
2018-12-07T15:50:26.459Z,35.66
2018-12-07T15:52:55.576Z,35.85
2018-12-07T15:55:24.822Z,35.17
2018-12-07T15:57:54.212Z,35.42
2018-12-07T16:00:23.373Z,35.43
2018-12-07T16:02:52.571Z,34.89
2018-12-07T16:05:21.838Z,35.11
2018-12-07T16:07:51.199Z,35.13
2018-12-07T16:10:20.112Z,35.00
2018-12-07T16:12:49.353Z,34.78
2018-12-07T16:15:18.426Z,34.99
2018-12-07T16:17:47.775Z,35.12
2018-12-07T16:20:18.889Z,35.44
2018-12-07T16:22:48.040Z,35.37
2018-12-07T16:25:17.556Z,35.08
2018-12-07T16:27:46.846Z,34.82
2018-12-07T16:30:15.862Z,34.96
2018-12-07T16:32:45.004Z,34.32
2018-12-07T16:35:14.220Z,34.71
2018-12-07T16:37:43.502Z,34.80
2018-12-07T16:40:12.824Z,34.92
2018-12-07T16:42:41.994Z,34.70
2018-12-07T16:45:11.254Z,34.95
2018-12-07T16:47:40.541Z,34.60
2018-12-07T16:50:09.739Z,34.61
2018-12-07T16:52:39.167Z,34.93
2018-12-07T16:55:08.268Z,34.55
2018-12-07T16:57:37.603Z,34.68
2018-12-07T17:00:07.413Z,34.07
2018-12-07T17:02:36.468Z,34.01
2018-12-07T17:05:06.133Z,33.42
2018-12-07T17:07:35.705Z,33.27
2018-12-07T17:10:05.355Z,33.18
2018-12-07T17:12:34.558Z,33.13
2018-12-07T17:15:03.867Z,33.00
2018-12-07T17:17:33.016Z,32.43
2018-12-07T17:20:02.143Z,32.56
2018-12-07T17:22:31.344Z,32.15
2018-12-07T17:25:00.638Z,32.16
2018-12-07T17:27:29.819Z,32.00
2018-12-07T17:29:59.184Z,31.29
2018-12-07T17:32:28.452Z,31.13
2018-12-07T17:34:57.670Z,31.26
2018-12-07T17:37:27.014Z,31.77
2018-12-07T17:39:56.130Z,31.02
2018-12-07T17:42:29.523Z,31.24
2018-12-07T17:44:56.477Z,32.02
2018-12-07T17:47:25.944Z,31.44
2018-12-07T17:49:55.298Z,31.78
2018-12-07T17:52:24.445Z,31.52
2018-12-07T17:54:53.598Z,30.25
2018-12-07T17:57:22.851Z,29.48
2018-12-07T17:59:52.212Z,30.46
2018-12-07T18:02:21.908Z,30.41
2018-12-07T18:04:51.255Z,31.09
2018-12-07T18:07:20.451Z,31.18
2018-12-07T18:09:49.733Z,31.73
2018-12-07T18:12:18.896Z,31.84
2018-12-07T18:14:48.155Z,31.62
2018-12-07T18:17:17.253Z,31.86
2018-12-07T18:19:46.462Z,32.46
2018-12-07T18:22:15.914Z,31.76
2018-12-07T18:24:45.215Z,32.45
2018-12-07T18:27:14.370Z,32.54
2018-12-07T18:29:43.419Z,32.29
2018-12-07T18:32:12.475Z,31.96
2018-12-07T18:34:41.698Z,31.89
2018-12-07T18:40:42.797Z,32.38
2018-12-07T18:43:12.000Z,31.69
2018-12-07T18:45:41.191Z,31.65
2018-12-07T18:48:10.457Z,32.14
2018-12-07T18:50:39.877Z,32.70
2018-12-07T18:53:09.167Z,32.28
2018-12-07T18:55:38.445Z,32.80
2018-12-07T18:58:07.792Z,32.39
2018-12-07T19:00:37.176Z,32.42
2018-12-07T19:03:06.709Z,32.54
2018-12-07T19:05:36.007Z,33.10
2018-12-07T19:08:05.533Z,32.92
2018-12-07T19:10:35.058Z,32.43
2018-12-07T19:13:04.732Z,32.94
2018-12-07T19:15:38.267Z,32.60
2018-12-07T19:18:07.382Z,32.84
2018-12-07T19:20:36.654Z,32.97
2018-12-07T19:23:06.049Z,32.77
2018-12-07T19:25:35.209Z,33.37
2018-12-07T19:28:05.472Z,32.90
2018-12-07T19:30:35.287Z,32.81
2018-12-07T19:33:04.641Z,32.71
2018-12-07T19:35:34.101Z,33.06
2018-12-07T19:38:03.210Z,32.75
2018-12-07T19:40:32.544Z,33.41
2018-12-07T19:43:02.179Z,33.16
2018-12-07T19:45:32.105Z,33.43
2018-12-07T19:48:02.398Z,33.29
2018-12-07T19:50:32.104Z,33.36
2018-12-07T19:53:01.522Z,33.29
2018-12-07T19:55:31.009Z,33.27
2018-12-07T19:58:00.314Z,33.28
2018-12-07T20:00:29.789Z,32.98
2018-12-07T20:02:59.216Z,33.04
2018-12-07T20:05:28.087Z,33.62
2018-12-07T20:07:57.476Z,33.39
2018-12-07T20:10:26.705Z,33.25
2018-12-07T20:12:55.673Z,33.13
2018-12-07T20:15:24.730Z,33.34
2018-12-07T20:17:54.417Z,33.66
2018-12-07T20:20:23.710Z,33.37
2018-12-07T20:22:53.272Z,33.36
2018-12-07T20:25:22.498Z,33.54
2018-12-07T20:27:51.954Z,33.85
2018-12-07T20:30:21.220Z,33.31
2018-12-07T20:32:50.582Z,33.46
2018-12-07T20:35:19.862Z,33.49
2018-12-07T20:37:49.140Z,33.57
2018-12-07T20:40:18.696Z,33.61
2018-12-07T20:42:47.830Z,33.62
2018-12-07T20:45:17.126Z,33.52
2018-12-07T20:47:46.831Z,34.04
2018-12-07T20:50:16.223Z,34.22
2018-12-07T20:52:45.359Z,33.64
2018-12-07T20:55:14.775Z,33.63
2018-12-07T20:57:43.953Z,33.64
2018-12-07T21:00:13.058Z,33.63
2018-12-07T21:02:42.201Z,33.49
2018-12-07T21:08:10.203Z,33.52
2018-12-07T21:11:15.800Z,33.65
2018-12-07T21:14:53.301Z,33.92
2018-12-07T21:17:27.712Z,33.46
2018-12-07T21:20:09.901Z,33.33
2018-12-07T21:22:39.132Z,33.64
2018-12-07T21:25:08.393Z,33.07
2018-12-07T21:27:37.771Z,33.50
2018-12-07T21:30:29.524Z,33.60
2018-12-07T21:32:58.542Z,33.86
2018-12-07T21:35:27.974Z,33.45
2018-12-07T21:37:57.181Z,33.71
2018-12-07T21:40:29.372Z,33.56
2018-12-07T21:42:58.698Z,33.73
2018-12-07T21:45:28.405Z,32.96
2018-12-07T21:48:24.447Z,33.09
2018-12-07T21:51:22.109Z,33.91
2018-12-07T21:53:51.675Z,33.91
2018-12-07T21:56:21.260Z,34.15
2018-12-07T21:58:50.898Z,33.99
2018-12-07T22:01:20.444Z,34.18
2018-12-07T22:03:50.101Z,33.98
2018-12-07T22:06:19.643Z,33.29
2018-12-07T22:08:49.151Z,33.29
2018-12-07T22:11:18.754Z,33.25
2018-12-07T22:13:48.408Z,33.66
2018-12-07T22:16:17.906Z,34.14
2018-12-07T22:18:47.462Z,33.38
2018-12-07T22:21:17.281Z,34.22
2018-12-07T22:23:47.110Z,34.06
2018-12-07T22:26:16.872Z,33.30
2018-12-07T22:28:46.366Z,33.32
2018-12-07T22:31:16.322Z,33.55
2018-12-07T22:33:46.273Z,33.05
2018-12-07T22:36:15.698Z,33.79
2018-12-07T22:38:46.272Z,33.64
2018-12-07T22:41:16.212Z,34.18
2018-12-07T22:43:45.653Z,33.96
2018-12-07T22:46:14.950Z,34.49
2018-12-07T22:48:44.611Z,33.82
2018-12-07T22:51:14.185Z,33.49
2018-12-07T22:53:43.557Z,33.12
2018-12-07T22:56:12.780Z,33.00
2018-12-07T22:58:41.848Z,33.23
2018-12-07T23:01:11.884Z,33.70
2018-12-07T23:03:41.315Z,34.30
2018-12-07T23:06:10.603Z,34.22
2018-12-07T23:08:39.835Z,34.50
2018-12-07T23:11:09.224Z,34.04
2018-12-07T23:13:38.595Z,33.99
2018-12-07T23:16:08.015Z,33.35
2018-12-07T23:18:37.306Z,33.81
2018-12-07T23:21:06.592Z,33.38
2018-12-07T23:23:35.908Z,33.54
2018-12-07T23:26:05.310Z,33.78
2018-12-07T23:28:34.797Z,34.30
2018-12-07T23:31:04.114Z,33.92
2018-12-07T23:33:33.518Z,33.93
2018-12-07T23:36:02.806Z,34.28
2018-12-07T23:38:32.065Z,33.63
2018-12-07T23:41:01.248Z,33.24
2018-12-07T23:43:30.722Z,33.29
2018-12-07T23:46:00.125Z,33.25
2018-12-07T23:48:29.534Z,33.63
2018-12-07T23:50:58.932Z,33.58
2018-12-07T23:53:28.348Z,34.32
2018-12-07T23:55:57.545Z,33.91
2018-12-07T23:58:26.853Z,33.65
